sensor_id;sensor_type;location;lat;lon;timestamp;pressure;altitude;pressure_sealevel;temperature;humidity
56042;BME280;48756;41.374;2.066;2023-01-29T00:00:04;101639.03;;;7.19;54.35
56042;BME280;48756;41.374;2.066;2023-01-29T00:02:34;101638.59;;;7.43;53.94
56042;BME280;48756;41.374;2.066;2023-01-29T00:04:59;101639.03;;;7.67;53.36
56042;BME280;48756;41.374;2.066;2023-01-29T00:07:24;101640.19;;;7.84;53.00
56042;BME280;48756;41.374;2.066;2023-01-29T00:09:50;101633.97;;;7.73;53.01
56042;BME280;48756;41.374;2.066;2023-01-29T00:12:15;101641.56;;;7.62;53.68
56042;BME280;48756;41.374;2.066;2023-01-29T00:14:40;101632.97;;;7.66;53.13
56042;BME280;48756;41.374;2.066;2023-01-29T00:17:06;101629.44;;;7.61;53.55
56042;BME280;48756;41.374;2.066;2023-01-29T00:19:31;101634.72;;;7.67;53.71
56042;BME280;48756;41.374;2.066;2023-01-29T00:21:56;101636.59;;;7.75;53.69
56042;BME280;48756;41.374;2.066;2023-01-29T00:24:22;101634.09;;;7.81;53.10
56042;BME280;48756;41.374;2.066;2023-01-29T00:26:47;101636.00;;;7.92;52.88
56042;BME280;48756;41.374;2.066;2023-01-29T00:29:14;101632.34;;;7.80;53.50
56042;BME280;48756;41.374;2.066;2023-01-29T00:31:39;101628.16;;;7.89;52.89
56042;BME280;48756;41.374;2.066;2023-01-29T00:34:08;101630.13;;;8.04;53.06
56042;BME280;48756;41.374;2.066;2023-01-29T00:36:33;101628.38;;;8.02;52.72
56042;BME280;48756;41.374;2.066;2023-01-29T00:38:59;101631.66;;;7.91;53.64
56042;BME280;48756;41.374;2.066;2023-01-29T00:41:30;101623.06;;;7.94;53.31
56042;BME280;48756;41.374;2.066;2023-01-29T00:44:14;101627.22;;;7.84;53.66
56042;BME280;48756;41.374;2.066;2023-01-29T00:46:58;101619.63;;;7.95;54.17
56042;BME280;48756;41.374;2.066;2023-01-29T00:49:24;101625.75;;;8.02;53.89
56042;BME280;48756;41.374;2.066;2023-01-29T00:51:50;101623.31;;;8.12;53.70
56042;BME280;48756;41.374;2.066;2023-01-29T00:54:34;101622.56;;;8.18;53.72
56042;BME280;48756;41.374;2.066;2023-01-29T00:57:00;101619.97;;;8.18;53.32
56042;BME280;48756;41.374;2.066;2023-01-29T00:59:25;101619.81;;;8.10;53.54
56042;BME280;48756;41.374;2.066;2023-01-29T01:01:50;101621.44;;;8.02;54.03
56042;BME280;48756;41.374;2.066;2023-01-29T01:04:34;101617.31;;;8.15;53.78
56042;BME280;48756;41.374;2.066;2023-01-29T01:07:00;101625.72;;;7.98;53.85
56042;BME280;48756;41.374;2.066;2023-01-29T01:09:25;101624.84;;;7.98;53.63
56042;BME280;48756;41.374;2.066;2023-01-29T01:12:09;101621.38;;;7.97;53.99
56042;BME280;48756;41.374;2.066;2023-01-29T01:14:34;101618.81;;;7.99;53.76
56042;BME280;48756;41.374;2.066;2023-01-29T01:17:00;101623.22;;;8.05;53.89
56042;BME280;48756;41.374;2.066;2023-01-29T01:19:25;101631.06;;;8.09;53.71
56042;BME280;48756;41.374;2.066;2023-01-29T01:21:51;101638.00;;;8.12;53.93
56042;BME280;48756;41.374;2.066;2023-01-29T01:24:16;101634.19;;;7.88;54.87
56042;BME280;48756;41.374;2.066;2023-01-29T01:26:41;101635.59;;;7.68;55.44
56042;BME280;48756;41.374;2.066;2023-01-29T01:29:07;101632.38;;;7.83;55.41
56042;BME280;48756;41.374;2.066;2023-01-29T01:31:33;101636.47;;;7.68;56.00
56042;BME280;48756;41.374;2.066;2023-01-29T01:33:58;101631.09;;;7.56;57.04
56042;BME280;48756;41.374;2.066;2023-01-29T01:36:23;101643.00;;;7.47;58.33
56042;BME280;48756;41.374;2.066;2023-01-29T01:38:49;101639.84;;;7.63;58.43
56042;BME280;48756;41.374;2.066;2023-01-29T01:41:15;101638.56;;;7.40;59.13
56042;BME280;48756;41.374;2.066;2023-01-29T01:43:48;101634.34;;;7.46;59.90
56042;BME280;48756;41.374;2.066;2023-01-29T01:46:14;101647.50;;;7.57;60.23
56042;BME280;48756;41.374;2.066;2023-01-29T01:48:39;101639.63;;;7.49;61.08
56042;BME280;48756;41.374;2.066;2023-01-29T01:51:05;101640.31;;;7.42;61.23
56042;BME280;48756;41.374;2.066;2023-01-29T01:53:35;101641.00;;;7.82;60.13
56042;BME280;48756;41.374;2.066;2023-01-29T01:56:13;101630.72;;;7.88;59.74
56042;BME280;48756;41.374;2.066;2023-01-29T01:58:44;101635.88;;;7.85;60.31
56042;BME280;48756;41.374;2.066;2023-01-29T02:01:11;101634.63;;;7.61;60.72
56042;BME280;48756;41.374;2.066;2023-01-29T02:03:40;101633.81;;;7.65;62.11
56042;BME280;48756;41.374;2.066;2023-01-29T02:06:25;101634.88;;;7.75;61.60
56042;BME280;48756;41.374;2.066;2023-01-29T02:09:16;101630.97;;;7.49;62.74
56042;BME280;48756;41.374;2.066;2023-01-29T02:12:00;101632.91;;;7.62;62.16
56042;BME280;48756;41.374;2.066;2023-01-29T02:14:26;101637.47;;;7.75;62.33
56042;BME280;48756;41.374;2.066;2023-01-29T02:16:51;101635.72;;;7.74;61.89
56042;BME280;48756;41.374;2.066;2023-01-29T02:19:30;101635.16;;;7.44;62.71
56042;BME280;48756;41.374;2.066;2023-01-29T02:27:07;101634.28;;;7.42;63.25
56042;BME280;48756;41.374;2.066;2023-01-29T02:32:04;101640.34;;;7.44;62.32
56042;BME280;48756;41.374;2.066;2023-01-29T02:37:21;101642.94;;;7.44;62.01
56042;BME280;48756;41.374;2.066;2023-01-29T02:42:52;101643.78;;;7.41;61.62
56042;BME280;48756;41.374;2.066;2023-01-29T02:45:29;101636.53;;;7.23;60.95
56042;BME280;48756;41.374;2.066;2023-01-29T02:47:57;101642.66;;;7.27;61.00
56042;BME280;48756;41.374;2.066;2023-01-29T02:55:29;101634.69;;;7.18;62.55
56042;BME280;48756;41.374;2.066;2023-01-29T02:57:59;101641.22;;;6.97;62.96
56042;BME280;48756;41.374;2.066;2023-01-29T03:00:27;101642.66;;;6.82;62.41
56042;BME280;48756;41.374;2.066;2023-01-29T03:02:56;101636.56;;;6.80;63.39
56042;BME280;48756;41.374;2.066;2023-01-29T03:05:26;101635.78;;;6.84;62.42
56042;BME280;48756;41.374;2.066;2023-01-29T03:07:54;101639.06;;;6.76;62.14
56042;BME280;48756;41.374;2.066;2023-01-29T03:10:22;101638.09;;;6.71;62.71
56042;BME280;48756;41.374;2.066;2023-01-29T03:15:38;101644.34;;;6.80;62.07
56042;BME280;48756;41.374;2.066;2023-01-29T03:18:20;101645.94;;;6.74;62.49
56042;BME280;48756;41.374;2.066;2023-01-29T03:20:50;101651.97;;;6.75;62.40
56042;BME280;48756;41.374;2.066;2023-01-29T03:23:21;101661.16;;;6.59;61.94
56042;BME280;48756;41.374;2.066;2023-01-29T03:26:07;101664.56;;;6.57;61.93
56042;BME280;48756;41.374;2.066;2023-01-29T03:28:51;101667.25;;;6.61;60.58
56042;BME280;48756;41.374;2.066;2023-01-29T03:31:36;101657.03;;;6.69;61.01
56042;BME280;48756;41.374;2.066;2023-01-29T03:34:20;101659.63;;;6.69;59.58
56042;BME280;48756;41.374;2.066;2023-01-29T03:36:56;101670.69;;;6.23;60.83
56042;BME280;48756;41.374;2.066;2023-01-29T03:39:27;101670.81;;;6.29;61.07
56042;BME280;48756;41.374;2.066;2023-01-29T03:49:47;101673.13;;;6.17;60.37
56042;BME280;48756;41.374;2.066;2023-01-29T03:52:18;101668.94;;;6.22;60.20
56042;BME280;48756;41.374;2.066;2023-01-29T03:54:58;101674.25;;;6.28;59.82
56042;BME280;48756;41.374;2.066;2023-01-29T03:59:52;101674.69;;;6.10;61.11
56042;BME280;48756;41.374;2.066;2023-01-29T04:02:26;101670.88;;;5.94;61.29
56042;BME280;48756;41.374;2.066;2023-01-29T04:04:55;101679.97;;;6.13;60.33
56042;BME280;48756;41.374;2.066;2023-01-29T04:07:21;101677.97;;;6.03;59.81
56042;BME280;48756;41.374;2.066;2023-01-29T04:12:24;101665.88;;;6.02;59.79
56042;BME280;48756;41.374;2.066;2023-01-29T04:14:51;101674.16;;;5.89;60.19
56042;BME280;48756;41.374;2.066;2023-01-29T04:17:19;101675.56;;;6.10;59.64
56042;BME280;48756;41.374;2.066;2023-01-29T04:19:46;101675.69;;;6.15;58.93
56042;BME280;48756;41.374;2.066;2023-01-29T04:24:43;101686.66;;;6.05;59.27
56042;BME280;48756;41.374;2.066;2023-01-29T04:32:15;101673.44;;;5.93;59.67
56042;BME280;48756;41.374;2.066;2023-01-29T04:45:10;101677.75;;;5.61;60.60
56042;BME280;48756;41.374;2.066;2023-01-29T04:47:41;101687.38;;;5.66;60.06
56042;BME280;48756;41.374;2.066;2023-01-29T04:50:18;101693.63;;;5.74;60.35
56042;BME280;48756;41.374;2.066;2023-01-29T04:55:50;101695.63;;;5.86;59.74
56042;BME280;48756;41.374;2.066;2023-01-29T05:00:44;101699.47;;;5.67;59.93
56042;BME280;48756;41.374;2.066;2023-01-29T05:03:13;101698.91;;;5.79;59.94
56042;BME280;48756;41.374;2.066;2023-01-29T05:05:40;101704.06;;;5.79;59.09
56042;BME280;48756;41.374;2.066;2023-01-29T05:08:06;101711.84;;;5.79;59.43
56042;BME280;48756;41.374;2.066;2023-01-29T05:10:32;101714.34;;;5.76;59.71
56042;BME280;48756;41.374;2.066;2023-01-29T05:12:59;101713.75;;;5.88;58.94
56042;BME280;48756;41.374;2.066;2023-01-29T05:15:27;101719.28;;;5.67;59.76
56042;BME280;48756;41.374;2.066;2023-01-29T05:17:54;101721.72;;;5.62;60.47
56042;BME280;48756;41.374;2.066;2023-01-29T05:20:26;101718.81;;;5.83;59.37
56042;BME280;48756;41.374;2.066;2023-01-29T05:22:51;101723.78;;;6.07;59.26
56042;BME280;48756;41.374;2.066;2023-01-29T05:25:22;101723.38;;;5.90;58.71
56042;BME280;48756;41.374;2.066;2023-01-29T05:27:48;101723.81;;;5.75;59.76
56042;BME280;48756;41.374;2.066;2023-01-29T05:30:38;101729.44;;;5.61;59.72
56042;BME280;48756;41.374;2.066;2023-01-29T05:33:08;101730.22;;;5.57;60.10
56042;BME280;48756;41.374;2.066;2023-01-29T05:35:35;101725.38;;;5.69;59.38
56042;BME280;48756;41.374;2.066;2023-01-29T05:38:01;101737.28;;;5.64;59.68
56042;BME280;48756;41.374;2.066;2023-01-29T05:40:27;101740.72;;;5.94;58.81
56042;BME280;48756;41.374;2.066;2023-01-29T05:42:53;101744.88;;;5.89;58.94
56042;BME280;48756;41.374;2.066;2023-01-29T05:45:18;101748.84;;;5.76;59.03
56042;BME280;48756;41.374;2.066;2023-01-29T05:47:44;101746.03;;;5.67;60.29
56042;BME280;48756;41.374;2.066;2023-01-29T05:50:10;101757.44;;;5.75;59.22
56042;BME280;48756;41.374;2.066;2023-01-29T05:52:35;101754.28;;;5.54;60.47
56042;BME280;48756;41.374;2.066;2023-01-29T05:55:01;101759.03;;;5.70;60.03
56042;BME280;48756;41.374;2.066;2023-01-29T05:57:26;101763.13;;;5.64;59.11
56042;BME280;48756;41.374;2.066;2023-01-29T05:59:51;101774.47;;;5.67;59.25
56042;BME280;48756;41.374;2.066;2023-01-29T06:02:17;101773.38;;;5.59;60.22
56042;BME280;48756;41.374;2.066;2023-01-29T06:04:42;101785.34;;;5.56;59.45
56042;BME280;48756;41.374;2.066;2023-01-29T06:07:07;101796.44;;;5.51;59.94
56042;BME280;48756;41.374;2.066;2023-01-29T06:09:33;101797.66;;;5.66;59.57
56042;BME280;48756;41.374;2.066;2023-01-29T06:12:01;101799.59;;;5.43;60.58
56042;BME280;48756;41.374;2.066;2023-01-29T06:14:26;101800.69;;;5.49;59.55
56042;BME280;48756;41.374;2.066;2023-01-29T06:16:52;101803.19;;;5.46;60.45
56042;BME280;48756;41.374;2.066;2023-01-29T06:19:17;101808.72;;;5.30;60.15
56042;BME280;48756;41.374;2.066;2023-01-29T06:21:42;101809.06;;;5.12;61.04
56042;BME280;48756;41.374;2.066;2023-01-29T06:24:08;101822.16;;;5.18;61.37
56042;BME280;48756;41.374;2.066;2023-01-29T06:26:36;101828.09;;;5.16;60.21
56042;BME280;48756;41.374;2.066;2023-01-29T06:29:01;101823.78;;;5.15;60.24
56042;BME280;48756;41.374;2.066;2023-01-29T06:31:30;101832.63;;;4.95;61.58
56042;BME280;48756;41.374;2.066;2023-01-29T06:33:56;101819.47;;;5.15;60.60
56042;BME280;48756;41.374;2.066;2023-01-29T06:36:21;101825.69;;;5.20;60.53
56042;BME280;48756;41.374;2.066;2023-01-29T06:38:47;101826.56;;;5.21;60.36
56042;BME280;48756;41.374;2.066;2023-01-29T06:41:13;101833.31;;;5.17;60.33
56042;BME280;48756;41.374;2.066;2023-01-29T06:43:42;101825.38;;;4.83;62.24
56042;BME280;48756;41.374;2.066;2023-01-29T06:46:07;101826.13;;;4.79;61.72
56042;BME280;48756;41.374;2.066;2023-01-29T06:48:33;101829.91;;;4.90;61.04
56042;BME280;48756;41.374;2.066;2023-01-29T06:51:02;101829.56;;;5.06;61.75
56042;BME280;48756;41.374;2.066;2023-01-29T06:53:28;101833.97;;;5.10;60.73
56042;BME280;48756;41.374;2.066;2023-01-29T06:55:53;101835.72;;;4.83;61.55
56042;BME280;48756;41.374;2.066;2023-01-29T06:58:19;101831.66;;;4.91;62.03
56042;BME280;48756;41.374;2.066;2023-01-29T07:00:45;101838.53;;;4.64;63.12
56042;BME280;48756;41.374;2.066;2023-01-29T07:03:10;101844.06;;;4.49;62.79
56042;BME280;48756;41.374;2.066;2023-01-29T07:05:36;101846.59;;;4.47;63.67
56042;BME280;48756;41.374;2.066;2023-01-29T07:08:01;101849.00;;;4.68;63.88
56042;BME280;48756;41.374;2.066;2023-01-29T07:10:30;101849.78;;;4.66;63.32
56042;BME280;48756;41.374;2.066;2023-01-29T07:12:55;101857.84;;;4.49;63.05
56042;BME280;48756;41.374;2.066;2023-01-29T07:15:23;101860.06;;;4.39;63.32
56042;BME280;48756;41.374;2.066;2023-01-29T07:17:56;101861.53;;;4.56;62.38
56042;BME280;48756;41.374;2.066;2023-01-29T07:20:26;101869.88;;;4.49;63.00
56042;BME280;48756;41.374;2.066;2023-01-29T07:22:52;101870.19;;;4.33;62.65
56042;BME280;48756;41.374;2.066;2023-01-29T07:25:17;101872.59;;;4.28;62.86
56042;BME280;48756;41.374;2.066;2023-01-29T07:27:46;101878.44;;;4.22;63.62
56042;BME280;48756;41.374;2.066;2023-01-29T07:30:12;101882.66;;;4.20;62.72
56042;BME280;48756;41.374;2.066;2023-01-29T07:32:38;101889.28;;;4.38;62.65
56042;BME280;48756;41.374;2.066;2023-01-29T07:35:03;101893.13;;;4.25;62.36
56042;BME280;48756;41.374;2.066;2023-01-29T07:37:29;101895.34;;;4.38;62.77
56042;BME280;48756;41.374;2.066;2023-01-29T07:39:54;101903.56;;;4.28;61.80
56042;BME280;48756;41.374;2.066;2023-01-29T07:42:19;101919.00;;;4.26;63.29
56042;BME280;48756;41.374;2.066;2023-01-29T07:44:45;101920.38;;;4.17;63.18
56042;BME280;48756;41.374;2.066;2023-01-29T07:47:10;101919.50;;;4.16;63.05
56042;BME280;48756;41.374;2.066;2023-01-29T07:49:35;101929.16;;;4.22;62.93
56042;BME280;48756;41.374;2.066;2023-01-29T07:52:01;101934.09;;;4.16;62.69
56042;BME280;48756;41.374;2.066;2023-01-29T07:54:26;101937.41;;;4.36;62.82
56042;BME280;48756;41.374;2.066;2023-01-29T07:56:51;101942.38;;;4.55;61.22
56042;BME280;48756;41.374;2.066;2023-01-29T07:59:17;101941.06;;;4.68;61.17
56042;BME280;48756;41.374;2.066;2023-01-29T08:01:42;101945.25;;;4.89;59.96
56042;BME280;48756;41.374;2.066;2023-01-29T08:04:07;101951.44;;;4.95;60.03
56042;BME280;48756;41.374;2.066;2023-01-29T08:06:33;101947.19;;;4.97;59.40
56042;BME280;48756;41.374;2.066;2023-01-29T08:08:58;101953.56;;;5.06;59.00
56042;BME280;48756;41.374;2.066;2023-01-29T08:11:24;101961.63;;;4.90;58.59
56042;BME280;48756;41.374;2.066;2023-01-29T08:13:49;101956.41;;;4.88;58.90
56042;BME280;48756;41.374;2.066;2023-01-29T08:16:14;101973.38;;;5.07;59.42
56042;BME280;48756;41.374;2.066;2023-01-29T08:18:40;101976.88;;;4.82;59.01
56042;BME280;48756;41.374;2.066;2023-01-29T08:21:10;101975.16;;;4.83;58.11
56042;BME280;48756;41.374;2.066;2023-01-29T08:23:35;101984.28;;;4.73;58.58
56042;BME280;48756;41.374;2.066;2023-01-29T08:26:01;101983.78;;;4.83;58.22
56042;BME280;48756;41.374;2.066;2023-01-29T08:28:27;101996.38;;;4.74;58.04
56042;BME280;48756;41.374;2.066;2023-01-29T08:30:52;102005.91;;;5.01;58.40
56042;BME280;48756;41.374;2.066;2023-01-29T08:33:18;102010.34;;;4.79;58.46
56042;BME280;48756;41.374;2.066;2023-01-29T08:35:47;102007.84;;;5.08;58.10
56042;BME280;48756;41.374;2.066;2023-01-29T08:38:12;102006.25;;;5.11;57.61
56042;BME280;48756;41.374;2.066;2023-01-29T08:40:38;102001.91;;;5.37;56.77
56042;BME280;48756;41.374;2.066;2023-01-29T08:43:04;102000.22;;;5.38;56.76
56042;BME280;48756;41.374;2.066;2023-01-29T08:45:31;101997.16;;;5.49;56.72
56042;BME280;48756;41.374;2.066;2023-01-29T08:47:57;102007.81;;;5.60;56.21
56042;BME280;48756;41.374;2.066;2023-01-29T08:50:22;102003.59;;;5.64;56.24
56042;BME280;48756;41.374;2.066;2023-01-29T08:52:48;102008.97;;;5.16;56.84
56042;BME280;48756;41.374;2.066;2023-01-29T08:55:13;102010.03;;;5.48;56.16
56042;BME280;48756;41.374;2.066;2023-01-29T08:57:38;102015.19;;;5.21;56.97
56042;BME280;48756;41.374;2.066;2023-01-29T09:00:05;102015.03;;;5.16;56.39
56042;BME280;48756;41.374;2.066;2023-01-29T09:02:31;102010.53;;;5.38;56.93
56042;BME280;48756;41.374;2.066;2023-01-29T09:04:56;102014.94;;;5.40;56.46
56042;BME280;48756;41.374;2.066;2023-01-29T09:07:21;102022.97;;;5.48;56.76
56042;BME280;48756;41.374;2.066;2023-01-29T09:09:47;102020.16;;;5.69;55.90
56042;BME280;48756;41.374;2.066;2023-01-29T09:12:12;102019.22;;;5.40;56.76
56042;BME280;48756;41.374;2.066;2023-01-29T09:14:37;102024.72;;;5.77;55.04
56042;BME280;48756;41.374;2.066;2023-01-29T09:17:03;102022.56;;;5.90;55.59
56042;BME280;48756;41.374;2.066;2023-01-29T09:19:28;102027.00;;;5.67;55.27
56042;BME280;48756;41.374;2.066;2023-01-29T09:21:54;102028.97;;;5.75;55.60
56042;BME280;48756;41.374;2.066;2023-01-29T09:24:19;102031.75;;;5.81;55.03
56042;BME280;48756;41.374;2.066;2023-01-29T09:26:44;102025.88;;;5.87;54.73
56042;BME280;48756;41.374;2.066;2023-01-29T09:29:10;102031.31;;;5.66;55.14
56042;BME280;48756;41.374;2.066;2023-01-29T09:31:35;102035.06;;;5.77;54.79
56042;BME280;48756;41.374;2.066;2023-01-29T09:34:01;102031.09;;;6.16;54.86
56042;BME280;48756;41.374;2.066;2023-01-29T09:36:26;102034.09;;;6.01;54.50
56042;BME280;48756;41.374;2.066;2023-01-29T09:38:51;102029.66;;;5.97;54.70
56042;BME280;48756;41.374;2.066;2023-01-29T09:43:50;102032.53;;;6.06;54.21
56042;BME280;48756;41.374;2.066;2023-01-29T09:46:20;102037.03;;;6.11;54.26
56042;BME280;48756;41.374;2.066;2023-01-29T09:48:47;102041.38;;;6.12;54.55
56042;BME280;48756;41.374;2.066;2023-01-29T09:51:36;102046.59;;;6.14;54.28
56042;BME280;48756;41.374;2.066;2023-01-29T09:56:29;102043.34;;;6.21;54.45
56042;BME280;48756;41.374;2.066;2023-01-29T09:58:55;102056.81;;;6.39;53.41
56042;BME280;48756;41.374;2.066;2023-01-29T10:01:31;102056.81;;;6.71;53.33
56042;BME280;48756;41.374;2.066;2023-01-29T10:25:28;102054.66;;;7.19;51.57
56042;BME280;48756;41.374;2.066;2023-01-29T10:27:47;102056.53;;;6.92;51.93
56042;BME280;48756;41.374;2.066;2023-01-29T10:30:33;102064.53;;;7.01;51.82
56042;BME280;48756;41.374;2.066;2023-01-29T10:33:02;102050.78;;;7.36;51.33
56042;BME280;48756;41.374;2.066;2023-01-29T10:35:30;102055.34;;;7.12;51.46
56042;BME280;48756;41.374;2.066;2023-01-29T10:37:57;102062.09;;;6.74;52.34
56042;BME280;48756;41.374;2.066;2023-01-29T10:43:16;102054.69;;;7.21;51.92
56042;BME280;48756;41.374;2.066;2023-01-29T10:45:46;102048.59;;;7.53;50.96
56042;BME280;48756;41.374;2.066;2023-01-29T10:50:48;102043.59;;;7.61;50.59
56042;BME280;48756;41.374;2.066;2023-01-29T10:53:30;102045.69;;;7.41;50.73
56042;BME280;48756;41.374;2.066;2023-01-29T10:56:07;102035.09;;;7.68;50.54
56042;BME280;48756;41.374;2.066;2023-01-29T10:58:37;102037.09;;;7.80;50.69
56042;BME280;48756;41.374;2.066;2023-01-29T11:01:08;102025.88;;;8.20;49.41
56042;BME280;48756;41.374;2.066;2023-01-29T11:03:34;102024.09;;;8.17;48.85
56042;BME280;48756;41.374;2.066;2023-01-29T11:08:26;102027.84;;;8.32;49.87
56042;BME280;48756;41.374;2.066;2023-01-29T11:11:07;102022.34;;;8.58;48.63
56042;BME280;48756;41.374;2.066;2023-01-29T11:13:41;102007.31;;;8.42;49.04
56042;BME280;48756;41.374;2.066;2023-01-29T11:16:07;102009.03;;;8.40;49.12
56042;BME280;48756;41.374;2.066;2023-01-29T11:18:49;101996.13;;;8.45;48.31
56042;BME280;48756;41.374;2.066;2023-01-29T11:21:15;101997.94;;;8.50;48.31
56042;BME280;48756;41.374;2.066;2023-01-29T11:23:40;101984.34;;;8.64;48.58
56042;BME280;48756;41.374;2.066;2023-01-29T11:26:05;101983.31;;;8.55;48.17
56042;BME280;48756;41.374;2.066;2023-01-29T11:31:00;101976.47;;;9.07;48.15
56042;BME280;48756;41.374;2.066;2023-01-29T11:33:26;101972.25;;;9.15;47.98
56042;BME280;48756;41.374;2.066;2023-01-29T11:35:52;101958.22;;;9.62;46.37
56042;BME280;48756;41.374;2.066;2023-01-29T11:40:48;101954.19;;;9.87;46.66
56042;BME280;48756;41.374;2.066;2023-01-29T11:45:48;101949.53;;;9.61;48.19
56042;BME280;48756;41.374;2.066;2023-01-29T11:48:18;101945.94;;;9.53;48.18
56042;BME280;48756;41.374;2.066;2023-01-29T11:50:49;101943.28;;;9.50;46.58
56042;BME280;48756;41.374;2.066;2023-01-29T11:56:01;101937.72;;;9.88;46.17
56042;BME280;48756;41.374;2.066;2023-01-29T11:58:31;101923.28;;;10.16;44.83
56042;BME280;48756;41.374;2.066;2023-01-29T12:00:58;101930.25;;;10.17;44.47
56042;BME280;48756;41.374;2.066;2023-01-29T12:05:57;101931.78;;;9.33;46.22
56042;BME280;48756;41.374;2.066;2023-01-29T12:08:23;101927.78;;;9.56;45.51
56042;BME280;48756;41.374;2.066;2023-01-29T12:10:49;101922.94;;;9.83;45.06
56042;BME280;48756;41.374;2.066;2023-01-29T12:13:25;101923.53;;;9.64;45.29
56042;BME280;48756;41.374;2.066;2023-01-29T12:16:04;101925.00;;;10.12;43.82
56042;BME280;48756;41.374;2.066;2023-01-29T12:18:33;101921.47;;;10.07;44.19
56042;BME280;48756;41.374;2.066;2023-01-29T12:21:04;101915.16;;;9.88;43.54
56042;BME280;48756;41.374;2.066;2023-01-29T12:23:53;101903.50;;;10.27;42.36
56042;BME280;48756;41.374;2.066;2023-01-29T12:31:40;101901.59;;;10.17;40.99
56042;BME280;48756;41.374;2.066;2023-01-29T12:36:41;101895.31;;;10.80;40.08
56042;BME280;48756;41.374;2.066;2023-01-29T12:39:09;101891.75;;;10.68;39.86
56042;BME280;48756;41.374;2.066;2023-01-29T12:41:38;101890.72;;;10.51;40.03
56042;BME280;48756;41.374;2.066;2023-01-29T12:46:44;101886.19;;;10.33;40.41
56042;BME280;48756;41.374;2.066;2023-01-29T12:49:15;101877.53;;;10.36;40.62
56042;BME280;48756;41.374;2.066;2023-01-29T12:51:45;101874.06;;;10.35;40.04
56042;BME280;48756;41.374;2.066;2023-01-29T12:54:15;101865.84;;;10.88;39.84
56042;BME280;48756;41.374;2.066;2023-01-29T12:56:45;101860.38;;;10.59;40.54
56042;BME280;48756;41.374;2.066;2023-01-29T12:59:14;101859.78;;;10.94;40.65
56042;BME280;48756;41.374;2.066;2023-01-29T13:01:48;101858.72;;;10.66;40.22
56042;BME280;48756;41.374;2.066;2023-01-29T13:04:27;101853.78;;;11.09;40.21
56042;BME280;48756;41.374;2.066;2023-01-29T13:06:55;101855.44;;;10.93;40.63
56042;BME280;48756;41.374;2.066;2023-01-29T13:09:25;101846.94;;;11.26;40.32
56042;BME280;48756;41.374;2.066;2023-01-29T13:11:54;101842.47;;;11.05;40.00
56042;BME280;48756;41.374;2.066;2023-01-29T13:14:30;101844.16;;;10.98;39.92
56042;BME280;48756;41.374;2.066;2023-01-29T13:17:04;101839.53;;;10.62;39.91
56042;BME280;48756;41.374;2.066;2023-01-29T13:19:30;101838.03;;;10.89;40.33
56042;BME280;48756;41.374;2.066;2023-01-29T13:21:58;101834.47;;;10.81;40.49
56042;BME280;48756;41.374;2.066;2023-01-29T13:24:26;101836.34;;;10.97;40.11
56042;BME280;48756;41.374;2.066;2023-01-29T13:26:57;101824.34;;;11.31;39.70
56042;BME280;48756;41.374;2.066;2023-01-29T13:29:23;101828.72;;;11.35;40.37
56042;BME280;48756;41.374;2.066;2023-01-29T13:31:50;101824.28;;;11.14;39.76
56042;BME280;48756;41.374;2.066;2023-01-29T13:34:26;101826.91;;;11.17;40.36
56042;BME280;48756;41.374;2.066;2023-01-29T13:36:54;101826.91;;;11.22;40.46
56042;BME280;48756;41.374;2.066;2023-01-29T13:39:30;101822.59;;;11.31;39.93
56042;BME280;48756;41.374;2.066;2023-01-29T13:41:57;101812.28;;;11.56;39.13
56042;BME280;48756;41.374;2.066;2023-01-29T13:44:36;101813.88;;;11.23;39.68
56042;BME280;48756;41.374;2.066;2023-01-29T13:47:03;101809.63;;;11.44;39.55
56042;BME280;48756;41.374;2.066;2023-01-29T13:49:40;101800.94;;;11.45;40.48
56042;BME280;48756;41.374;2.066;2023-01-29T13:54:39;101807.16;;;11.77;42.97
56042;BME280;48756;41.374;2.066;2023-01-29T13:57:04;101806.22;;;11.71;42.59
56042;BME280;48756;41.374;2.066;2023-01-29T14:02:21;101801.84;;;11.54;44.00
56042;BME280;48756;41.374;2.066;2023-01-29T14:04:47;101802.72;;;11.56;44.24
56042;BME280;48756;41.374;2.066;2023-01-29T14:12:38;101800.13;;;11.61;43.68
56042;BME280;48756;41.374;2.066;2023-01-29T14:15:14;101801.00;;;11.63;44.58
56042;BME280;48756;41.374;2.066;2023-01-29T14:18:02;101801.81;;;11.48;43.73
56042;BME280;48756;41.374;2.066;2023-01-29T14:20:33;101811.34;;;11.40;44.86
56042;BME280;48756;41.374;2.066;2023-01-29T14:23:01;101809.59;;;11.39;45.14
56042;BME280;48756;41.374;2.066;2023-01-29T14:25:32;101812.09;;;11.13;45.72
56042;BME280;48756;41.374;2.066;2023-01-29T14:27:58;101813.81;;;11.11;45.19
56042;BME280;48756;41.374;2.066;2023-01-29T14:30:26;101814.75;;;11.24;45.76
56042;BME280;48756;41.374;2.066;2023-01-29T14:32:53;101813.00;;;11.23;45.67
56042;BME280;48756;41.374;2.066;2023-01-29T14:35:19;101809.53;;;11.28;44.79
56042;BME280;48756;41.374;2.066;2023-01-29T14:38:19;101824.41;;;11.42;44.52
56042;BME280;48756;41.374;2.066;2023-01-29T14:40:37;101822.69;;;11.51;44.54
56042;BME280;48756;41.374;2.066;2023-01-29T14:52:53;101815.78;;;11.55;44.78
56042;BME280;48756;41.374;2.066;2023-01-29T14:55:28;101825.34;;;11.57;45.94
56042;BME280;48756;41.374;2.066;2023-01-29T14:57:54;101826.22;;;11.56;46.45
56042;BME280;48756;41.374;2.066;2023-01-29T15:00:55;101831.38;;;11.44;46.79
56042;BME280;48756;41.374;2.066;2023-01-29T15:06:05;101827.53;;;10.83;48.21
56042;BME280;48756;41.374;2.066;2023-01-29T15:08:36;101826.81;;;11.03;49.21
56042;BME280;48756;41.374;2.066;2023-01-29T15:11:08;101832.06;;;11.10;49.12
56042;BME280;48756;41.374;2.066;2023-01-29T15:14:02;101833.75;;;11.06;48.53
56042;BME280;48756;41.374;2.066;2023-01-29T15:16:33;101836.34;;;11.03;49.23
56042;BME280;48756;41.374;2.066;2023-01-29T15:19:10;101842.44;;;11.02;49.56
56042;BME280;48756;41.374;2.066;2023-01-29T15:21:38;101844.91;;;10.82;51.06
56042;BME280;48756;41.374;2.066;2023-01-29T15:24:04;101846.63;;;10.77;50.71